createdAt,value
2023-03-15T00:07:26.749Z,11.02
2023-03-15T00:10:02.248Z,10.77
2023-03-15T00:12:35.378Z,10.75
2023-03-15T00:15:12.277Z,11.24
2023-03-15T00:17:47.407Z,10.68
2023-03-15T00:20:20.793Z,11.36
2023-03-15T00:22:59.579Z,10.84
2023-03-15T00:25:40.556Z,10.76
2023-03-15T00:29:31.760Z,11.26
2023-03-15T00:32:10.156Z,11.26
2023-03-15T00:34:42.610Z,11.27
2023-03-15T00:40:13.907Z,11.02
2023-03-15T00:42:42.180Z,11.03
2023-03-15T00:45:10.916Z,11.02
2023-03-15T00:47:40.531Z,11.02
2023-03-15T00:50:09.185Z,11.01
2023-03-15T00:52:43.473Z,10.93
2023-03-15T00:55:19.921Z,10.82
2023-03-15T00:57:52.213Z,10.10
2023-03-15T01:00:25.408Z,10.78
2023-03-15T01:02:59.324Z,10.23
2023-03-15T01:05:28.526Z,10.60
2023-03-15T01:08:07.799Z,10.23
2023-03-15T01:10:46.362Z,10.80
2023-03-15T01:13:18.009Z,10.20
2023-03-15T01:18:38.287Z,10.08
2023-03-15T01:21:09.888Z,10.68
2023-03-15T01:23:44.206Z,10.50
2023-03-15T01:26:42.001Z,10.74
2023-03-15T01:29:14.503Z,9.99
2023-03-15T01:31:58.379Z,10.45
2023-03-15T01:34:35.777Z,10.03
2023-03-15T01:37:10.498Z,10.77
2023-03-15T01:39:44.173Z,10.35
2023-03-15T01:42:23.713Z,10.28
2023-03-15T01:45:05.606Z,10.77
2023-03-15T01:50:24.113Z,9.97
2023-03-15T01:53:00.305Z,10.69
2023-03-15T02:01:23.143Z,10.61
2023-03-15T02:03:59.841Z,10.60
2023-03-15T02:06:40.148Z,10.33
2023-03-15T02:09:15.312Z,10.56
2023-03-15T02:14:44.942Z,10.50
2023-03-15T02:17:13.968Z,10.43
2023-03-15T02:19:59.607Z,10.11
2023-03-15T02:22:47.586Z,9.88
2023-03-15T02:25:41.294Z,9.75
2023-03-15T02:28:27.153Z,9.71
2023-03-15T02:31:05.715Z,9.81
2023-03-15T02:33:53.636Z,9.76
2023-03-15T02:36:31.594Z,10.48
2023-03-15T02:39:19.952Z,10.03
2023-03-15T02:44:46.962Z,10.14
2023-03-15T02:47:28.206Z,10.44
2023-03-15T02:50:25.859Z,10.43
2023-03-15T02:53:30.799Z,10.62
2023-03-15T02:56:23.931Z,10.47
2023-03-15T02:59:00.129Z,9.85
2023-03-15T03:01:39.295Z,9.86
2023-03-15T03:04:16.415Z,9.83
2023-03-15T03:09:39.976Z,9.87
2023-03-15T03:12:13.262Z,9.97
2023-03-15T03:14:43.776Z,10.06
2023-03-15T03:17:42.646Z,10.48
2023-03-15T03:20:18.709Z,10.47
2023-03-15T03:22:53.579Z,10.52
2023-03-15T03:25:27.538Z,10.01
2023-03-15T03:28:15.303Z,10.58
2023-03-15T03:30:54.137Z,10.57
2023-03-15T03:33:39.447Z,9.88
2023-03-15T03:39:03.352Z,9.98
2023-03-15T03:41:34.817Z,10.52
2023-03-15T03:44:05.426Z,10.06
2023-03-15T03:46:34.120Z,10.45
2023-03-15T03:49:19.323Z,10.47
2023-03-15T03:51:49.300Z,9.94
2023-03-15T03:54:31.596Z,10.25
2023-03-15T04:00:15.404Z,10.50
2023-03-15T04:02:46.784Z,10.53
2023-03-15T04:05:35.364Z,9.86
2023-03-15T04:08:11.423Z,10.18
2023-03-15T04:10:48.075Z,10.55
2023-03-15T04:13:16.310Z,10.53
2023-03-15T04:15:45.314Z,9.97
2023-03-15T04:18:23.027Z,10.52
2023-03-15T04:20:59.616Z,9.98
2023-03-15T04:23:29.223Z,10.53
2023-03-15T04:25:58.414Z,10.48
2023-03-15T04:28:33.473Z,10.08
2023-03-15T04:31:04.630Z,9.88
2023-03-15T04:33:45.213Z,10.50
2023-03-15T04:36:28.237Z,9.81
2023-03-15T04:39:13.110Z,10.37
2023-03-15T04:41:50.887Z,10.32
2023-03-15T04:44:26.618Z,9.58
2023-03-15T04:46:55.741Z,10.15
2023-03-15T04:49:34.799Z,10.08
2023-03-15T04:52:11.906Z,9.54
2023-03-15T04:55:11.558Z,9.58
2023-03-15T04:57:47.245Z,10.11
2023-03-15T05:00:17.315Z,10.04
2023-03-15T05:03:03.085Z,9.44
2023-03-15T05:05:47.042Z,9.89
2023-03-15T05:08:49.448Z,9.94
2023-03-15T05:11:28.046Z,9.28
2023-03-15T05:13:59.211Z,9.88
2023-03-15T05:16:38.537Z,9.68
2023-03-15T05:19:21.266Z,9.56
2023-03-15T05:22:02.799Z,9.54
2023-03-15T05:24:46.276Z,9.74
2023-03-15T05:27:17.917Z,9.71
2023-03-15T05:29:58.406Z,9.75
2023-03-15T05:32:45.138Z,9.13
2023-03-15T05:35:19.517Z,9.60
2023-03-15T05:37:49.634Z,9.14
2023-03-15T05:40:30.788Z,9.90
2023-03-15T05:43:34.856Z,9.68
2023-03-15T05:55:17.378Z,10.36
2023-03-15T05:58:30.858Z,10.65
2023-03-15T06:25:48.145Z,11.24
2023-03-15T06:31:07.303Z,11.55
2023-03-15T06:33:34.710Z,11.94
2023-03-15T06:36:02.104Z,12.17
2023-03-15T06:38:31.307Z,12.47
2023-03-15T06:41:01.298Z,12.65
2023-03-15T06:43:28.812Z,12.75
2023-03-15T06:45:58.675Z,12.86
2023-03-15T06:48:26.294Z,12.99
2023-03-15T06:50:53.542Z,13.18
2023-03-15T06:53:21.450Z,13.33
2023-03-15T06:55:50.804Z,13.48
2023-03-15T06:58:18.490Z,13.57
2023-03-15T07:00:46.067Z,13.35
2023-03-15T07:03:13.446Z,13.13
2023-03-15T07:05:40.433Z,12.38
2023-03-15T07:08:07.837Z,12.41
2023-03-15T07:10:34.932Z,12.74
2023-03-15T07:13:05.164Z,12.64
2023-03-15T07:15:32.269Z,12.57
2023-03-15T07:17:59.501Z,12.03
2023-03-15T07:20:26.660Z,12.43
2023-03-15T07:22:54.049Z,12.35
2023-03-15T07:25:24.098Z,11.78
2023-03-15T07:27:54.017Z,12.24
2023-03-15T07:30:22.639Z,12.16
2023-03-15T07:32:50.075Z,11.48
2023-03-15T07:35:18.208Z,11.97
2023-03-15T07:37:46.352Z,11.51
2023-03-15T07:40:15.996Z,11.42
2023-03-15T07:42:43.915Z,11.97
2023-03-15T07:45:11.921Z,12.28
2023-03-15T07:47:41.023Z,11.84
2023-03-15T07:50:09.525Z,12.02
2023-03-15T07:52:36.946Z,12.48
2023-03-15T07:55:10.038Z,12.55
2023-03-15T07:57:37.564Z,11.91
2023-03-15T08:00:06.224Z,12.27
2023-03-15T08:02:33.564Z,12.21
2023-03-15T08:05:01.900Z,12.21
2023-03-15T08:07:29.427Z,11.72
2023-03-15T08:09:58.346Z,12.21
2023-03-15T08:12:25.850Z,12.08
2023-03-15T08:14:53.171Z,12.23
2023-03-15T08:17:20.927Z,12.28
2023-03-15T08:19:47.932Z,12.37
2023-03-15T08:22:16.675Z,12.30
2023-03-15T08:24:45.529Z,12.69
2023-03-15T08:27:12.674Z,12.81
2023-03-15T08:29:39.900Z,12.84
2023-03-15T08:32:10.681Z,12.62
2023-03-15T08:34:52.151Z,12.89
2023-03-15T08:44:02.943Z,12.45
2023-03-15T08:46:48.549Z,13.16
2023-03-15T08:49:21.962Z,13.23
2023-03-15T08:52:00.674Z,13.30
2023-03-15T08:57:59.726Z,12.83
2023-03-15T09:07:28.115Z,13.09
2023-03-15T09:10:04.793Z,13.66
2023-03-15T09:12:43.539Z,13.24
2023-03-15T09:18:21.011Z,13.80
2023-03-15T09:21:00.059Z,13.56
2023-03-15T09:23:31.820Z,14.18
2023-03-15T09:29:26.712Z,14.57
2023-03-15T09:32:09.076Z,14.19
2023-03-15T09:35:14.587Z,14.85
2023-03-15T09:37:45.644Z,14.73
2023-03-15T09:40:56.678Z,15.25
2023-03-15T09:43:58.065Z,15.16
2023-03-15T09:47:02.511Z,14.97
2023-03-15T09:49:58.211Z,14.78
2023-03-15T09:52:50.141Z,15.57
2023-03-15T09:55:23.148Z,15.57
2023-03-15T09:57:59.800Z,15.10
2023-03-15T10:00:34.392Z,15.04
2023-03-15T10:03:08.464Z,15.06
2023-03-15T10:06:00.957Z,15.44
2023-03-15T10:08:38.632Z,15.04
2023-03-15T10:11:18.832Z,15.01
2023-03-15T10:14:15.029Z,15.62
2023-03-15T10:16:47.945Z,15.27
2023-03-15T10:19:32.857Z,15.75
2023-03-15T10:22:27.104Z,15.51
2023-03-15T10:25:20.013Z,15.36
2023-03-15T10:27:59.072Z,15.39
2023-03-15T10:30:29.615Z,15.50
2023-03-15T10:33:05.880Z,15.60
2023-03-15T10:35:33.687Z,16.18
2023-03-15T10:38:21.713Z,16.10
2023-03-15T10:40:54.008Z,15.92
2023-03-15T10:43:31.802Z,16.54
2023-03-15T10:46:09.705Z,16.25
2023-03-15T10:48:39.222Z,16.40
2023-03-15T10:51:17.105Z,16.67
2023-03-15T10:54:00.334Z,16.87
2023-03-15T10:56:38.094Z,16.88
2023-03-15T10:59:20.479Z,16.62
2023-03-15T11:01:55.541Z,17.00
2023-03-15T11:04:34.553Z,16.44
2023-03-15T11:07:06.304Z,16.81
2023-03-15T11:09:45.762Z,16.29
2023-03-15T11:12:25.066Z,16.51
2023-03-15T11:15:07.990Z,16.50
2023-03-15T11:17:44.123Z,15.94
2023-03-15T11:20:35.685Z,15.72
2023-03-15T11:23:19.451Z,15.78
2023-03-15T11:25:51.611Z,16.07
2023-03-15T11:28:22.778Z,15.81
2023-03-15T11:30:50.266Z,16.04
2023-03-15T11:33:34.097Z,15.94
2023-03-15T11:36:05.603Z,15.94
2023-03-15T11:38:35.226Z,15.69
2023-03-15T11:41:13.952Z,15.58
2023-03-15T11:43:52.393Z,15.54
2023-03-15T11:46:27.980Z,15.44
2023-03-15T11:49:01.350Z,15.19
2023-03-15T11:51:33.110Z,15.13
2023-03-15T11:54:07.224Z,14.95
2023-03-15T11:56:53.358Z,14.77
2023-03-15T11:59:25.512Z,14.59
2023-03-15T12:01:58.657Z,14.54
2023-03-15T12:04:44.130Z,14.32
2023-03-15T12:07:30.126Z,14.28
2023-03-15T12:09:58.559Z,14.03
2023-03-15T12:12:39.012Z,14.09
2023-03-15T12:15:44.147Z,13.99
2023-03-15T12:18:16.505Z,13.79
2023-03-15T12:20:50.895Z,13.55
2023-03-15T12:23:38.658Z,13.80
2023-03-15T12:26:10.570Z,13.94
2023-03-15T12:28:41.807Z,13.70
2023-03-15T12:31:13.370Z,13.86
2023-03-15T12:33:47.186Z,13.75
2023-03-15T12:36:27.726Z,13.54
2023-03-15T12:39:01.064Z,13.66
2023-03-15T12:41:38.676Z,13.68
2023-03-15T12:44:25.168Z,13.57
2023-03-15T12:46:59.972Z,13.36
2023-03-15T12:49:34.957Z,12.72
2023-03-15T12:52:04.850Z,13.14
2023-03-15T12:54:44.198Z,12.39
2023-03-15T13:00:33.321Z,12.84
2023-03-15T13:03:07.574Z,12.27
2023-03-15T13:06:04.218Z,12.15
2023-03-15T13:08:58.610Z,12.19
2023-03-15T13:11:34.738Z,12.02
2023-03-15T13:14:47.888Z,12.56
2023-03-15T13:18:01.410Z,12.02
2023-03-15T13:20:50.068Z,12.53
2023-03-15T13:23:52.781Z,11.98
2023-03-15T13:30:49.995Z,12.73
2023-03-15T13:43:40.530Z,12.22
2023-03-15T13:46:34.583Z,12.81
2023-03-15T13:49:31.883Z,12.34
2023-03-15T13:55:58.272Z,12.68
2023-03-15T14:05:51.493Z,12.12
2023-03-15T14:08:42.851Z,12.27
2023-03-15T14:11:58.234Z,11.72
2023-03-15T14:22:21.878Z,11.08
2023-03-15T14:25:25.863Z,10.67
2023-03-15T14:33:46.130Z,10.95
2023-03-15T14:39:48.168Z,10.39
2023-03-15T14:42:57.934Z,10.27
2023-03-15T14:46:02.975Z,10.11
2023-03-15T14:48:34.733Z,10.31
2023-03-15T14:51:36.892Z,9.48
2023-03-15T14:54:27.508Z,9.50
2023-03-15T14:57:09.041Z,9.62
2023-03-15T15:00:20.061Z,9.04
2023-03-15T15:02:59.693Z,9.38
2023-03-15T15:08:49.422Z,8.84
2023-03-15T15:14:41.465Z,8.49
2023-03-15T15:17:18.379Z,8.43
2023-03-15T15:20:06.706Z,8.78
2023-03-15T15:25:36.688Z,7.98
2023-03-15T15:28:35.905Z,8.37
2023-03-15T15:31:16.519Z,8.16
2023-03-15T15:34:01.829Z,8.00
2023-03-15T15:37:11.893Z,7.19
2023-03-15T15:43:01.436Z,7.01
2023-03-15T15:48:32.961Z,6.77
2023-03-15T15:51:31.106Z,7.30
2023-03-15T15:54:16.406Z,7.21
2023-03-15T16:02:35.273Z,6.86
2023-03-15T16:08:04.695Z,6.05
2023-03-15T16:11:09.652Z,6.73
2023-03-15T16:14:31.427Z,6.07
2023-03-15T16:17:05.032Z,6.04
2023-03-15T16:23:14.453Z,5.74
2023-03-15T16:26:11.387Z,5.92
2023-03-15T16:28:42.192Z,5.74
2023-03-15T16:31:22.597Z,5.62
2023-03-15T16:40:01.664Z,6.23
2023-03-15T16:42:47.855Z,6.15
2023-03-15T16:45:18.870Z,6.09
2023-03-15T16:47:54.626Z,5.38
2023-03-15T16:50:35.517Z,5.36
2023-03-15T16:53:13.612Z,5.71
2023-03-15T16:55:41.914Z,5.19
2023-03-15T16:58:17.628Z,5.79
2023-03-15T17:00:50.778Z,5.52
2023-03-15T17:03:20.200Z,5.50
2023-03-15T17:06:01.279Z,5.67
2023-03-15T17:08:29.821Z,5.06
2023-03-15T17:11:01.222Z,5.02
2023-03-15T17:13:33.363Z,5.71
2023-03-15T17:16:06.845Z,5.04
2023-03-15T17:18:37.950Z,5.43
2023-03-15T17:24:25.312Z,4.91
2023-03-15T17:26:52.885Z,4.81
2023-03-15T17:29:19.943Z,4.70
2023-03-15T17:31:47.995Z,5.42
2023-03-15T17:34:15.367Z,4.82
2023-03-15T17:36:43.291Z,5.57
2023-03-15T17:39:14.466Z,5.02
2023-03-15T17:41:46.998Z,4.92
2023-03-15T17:44:14.495Z,5.46
2023-03-15T17:46:42.924Z,5.25
2023-03-15T17:49:13.370Z,4.72
2023-03-15T17:51:40.887Z,5.38
2023-03-15T17:54:14.194Z,5.38
2023-03-15T17:56:43.651Z,5.40
2023-03-15T17:59:14.187Z,5.25
2023-03-15T18:01:45.681Z,4.75
2023-03-15T18:04:13.882Z,4.81
2023-03-15T18:06:41.981Z,5.28
2023-03-15T18:09:10.679Z,5.06
2023-03-15T18:11:42.738Z,4.76
2023-03-15T18:14:14.595Z,4.39
2023-03-15T18:16:42.670Z,4.94
2023-03-15T18:19:10.418Z,4.96
2023-03-15T18:21:37.941Z,4.35
2023-03-15T18:24:05.678Z,4.24
2023-03-15T18:26:33.237Z,4.65
2023-03-15T18:29:01.097Z,4.69
2023-03-15T18:31:30.065Z,4.28
2023-03-15T18:33:57.201Z,5.16
2023-03-15T18:36:24.999Z,5.32
2023-03-15T18:38:52.651Z,4.71
2023-03-15T18:41:21.813Z,4.35
2023-03-15T18:43:50.253Z,4.71
2023-03-15T18:46:18.251Z,3.99
2023-03-15T18:48:47.635Z,4.18
2023-03-15T18:51:15.537Z,4.82
2023-03-15T18:53:44.141Z,4.00
2023-03-15T18:56:17.586Z,4.46
2023-03-15T18:58:45.296Z,4.41
2023-03-15T19:01:12.695Z,3.80
2023-03-15T19:03:40.348Z,4.09
2023-03-15T19:06:11.746Z,3.79
2023-03-15T19:08:39.138Z,4.45
2023-03-15T19:11:08.085Z,4.43
2023-03-15T19:13:37.363Z,4.62
2023-03-15T19:16:05.011Z,5.10
2023-03-15T19:18:34.956Z,5.31
2023-03-15T19:21:02.799Z,4.91
2023-03-15T19:23:32.057Z,5.24
2023-03-15T19:25:59.456Z,4.21
2023-03-15T19:28:26.588Z,4.41
2023-03-15T19:30:54.104Z,3.93
2023-03-15T19:33:21.233Z,4.40
2023-03-15T19:35:50.143Z,4.33
2023-03-15T19:38:20.100Z,4.29
2023-03-15T19:40:55.248Z,3.60
2023-03-15T19:43:22.819Z,3.59
2023-03-15T19:45:50.246Z,4.28
2023-03-15T19:48:19.169Z,4.29
2023-03-15T19:50:50.218Z,3.51
2023-03-15T19:53:18.362Z,4.22
2023-03-15T19:55:47.015Z,4.19
2023-03-15T19:58:15.593Z,3.59
2023-03-15T20:00:43.289Z,3.55
2023-03-15T20:03:12.630Z,4.15
2023-03-15T20:05:40.056Z,4.12
2023-03-15T20:08:08.427Z,3.68
2023-03-15T20:10:36.701Z,3.45
2023-03-15T20:13:03.969Z,3.48
2023-03-15T20:15:32.824Z,3.39
2023-03-15T20:17:59.959Z,4.03
2023-03-15T20:20:27.561Z,3.53
2023-03-15T20:22:54.666Z,3.47
2023-03-15T20:25:22.187Z,3.24
2023-03-15T20:27:49.309Z,3.38
2023-03-15T20:30:17.737Z,3.17
2023-03-15T20:32:46.295Z,4.01
2023-03-15T20:35:13.841Z,4.00
2023-03-15T20:37:42.305Z,3.33
2023-03-15T20:40:12.634Z,3.91
2023-03-15T20:42:40.029Z,3.20
2023-03-15T20:45:09.690Z,3.62
2023-03-15T20:47:38.195Z,3.38
2023-03-15T20:50:10.313Z,3.19
2023-03-15T20:52:37.505Z,3.25
2023-03-15T20:55:07.903Z,3.33
2023-03-15T20:57:38.942Z,3.75
2023-03-15T21:00:12.599Z,3.23
2023-03-15T21:02:40.410Z,3.18
2023-03-15T21:05:13.004Z,3.94
2023-03-15T21:07:41.365Z,3.88
2023-03-15T21:10:10.289Z,3.81
2023-03-15T21:12:37.717Z,3.65
2023-03-15T21:15:06.227Z,3.29
2023-03-15T21:17:33.463Z,3.13
2023-03-15T21:20:01.058Z,3.05
2023-03-15T21:22:29.624Z,3.07
2023-03-15T21:24:57.148Z,3.62
2023-03-15T21:27:26.306Z,2.96
2023-03-15T21:29:54.013Z,2.97
2023-03-15T21:32:21.622Z,3.59
2023-03-15T21:34:48.932Z,2.87
2023-03-15T21:37:16.155Z,2.92
2023-03-15T21:39:44.898Z,3.02
2023-03-15T21:42:12.037Z,3.66
2023-03-15T21:44:39.626Z,3.70
2023-03-15T21:47:06.970Z,3.75
2023-03-15T21:49:34.433Z,3.69
2023-03-15T21:52:02.513Z,3.05
2023-03-15T21:54:29.936Z,3.52
2023-03-15T21:56:58.454Z,3.04
2023-03-15T21:59:28.759Z,3.05
2023-03-15T22:01:56.210Z,3.00
2023-03-15T22:04:25.242Z,2.93
2023-03-15T22:06:53.023Z,3.51
2023-03-15T22:09:21.374Z,3.49
2023-03-15T22:11:49.239Z,3.47
2023-03-15T22:14:18.697Z,3.13
2023-03-15T22:16:45.761Z,3.50
2023-03-15T22:19:14.486Z,2.88
2023-03-15T22:21:42.300Z,3.13
2023-03-15T22:24:09.885Z,3.50
2023-03-15T22:26:37.321Z,3.18
2023-03-15T22:29:04.709Z,3.49
2023-03-15T22:31:33.474Z,2.94
2023-03-15T22:34:02.960Z,3.52
2023-03-15T22:36:33.828Z,3.54
2023-03-15T22:39:01.510Z,3.53
2023-03-15T22:41:28.737Z,2.96
2023-03-15T22:43:56.241Z,2.85
2023-03-15T22:46:23.496Z,3.28
2023-03-15T22:48:52.526Z,2.86
2023-03-15T22:51:19.571Z,3.35
2023-03-15T22:53:47.651Z,3.52
2023-03-15T22:56:14.668Z,3.00
2023-03-15T22:58:41.994Z,3.58
2023-03-15T23:01:10.082Z,3.37
2023-03-15T23:03:37.459Z,3.63
2023-03-15T23:06:06.340Z,3.64
2023-03-15T23:08:33.505Z,3.63
2023-03-15T23:11:00.530Z,3.36
2023-03-15T23:13:27.939Z,3.16
2023-03-15T23:15:55.214Z,3.09
2023-03-15T23:18:22.621Z,3.01
2023-03-15T23:20:49.638Z,3.65
2023-03-15T23:23:18.490Z,3.55
2023-03-15T23:25:46.921Z,3.65
2023-03-15T23:28:17.406Z,3.64
2023-03-15T23:30:45.675Z,3.02
2023-03-15T23:33:13.513Z,3.68
2023-03-15T23:35:42.117Z,3.04
2023-03-15T23:38:09.661Z,3.66
2023-03-15T23:40:38.518Z,2.96
2023-03-15T23:43:05.998Z,3.58
2023-03-15T23:45:34.117Z,3.57
2023-03-15T23:48:05.735Z,3.59
2023-03-15T23:50:32.781Z,3.57
2023-03-15T23:53:00.400Z,3.08
2023-03-15T23:55:27.475Z,3.24
2023-03-15T23:57:56.446Z,3.57
